KTIK/TIK METAR and TAF weather

Enter ICAO airport designator
Station Type Date Time Source
KTIK METAR 2022/11/30 22:55 UTC NOAA

KTIK 302255Z AUTO 09003KT 10SM CLR 05/M08 A3038 RMK AO2 SLP306 T00471084 $


Station Type Date Time Source
KTIK Decoded METAR 2022/11/30 22:55 UTC NOAA

Tinker Air Force Base, OK, United States (KTIK) 35-25N 097-23W 397M
Nov 30, 2022 - 05:55 PM EST / 2022.11.30 2255 UTC
Wind: from the E (090 degrees) at 3 MPH (3 KT):0
Visibility: 10 mile(s):0
Sky conditions: clear
Temperature: 40.5 F (4.7 C)
Dew Point: 16.9 F (-8.4 C)
Relative Humidity: 38%
Pressure (altimeter): 30.38 in. Hg (1028 hPa)
ob: KTIK 302255Z AUTO 09003KT 10SM CLR 05/M08 A3038 RMK AO2 SLP306 T00471084
cycle: 23

Station Type Date Time Source
KTIK TAF 2022/11/30 18:24 UTC NOAA

TAF KTIK 301800Z 3018/0124 06006KT 9999 SKC QNH3040INS
BECMG 3023/3024 15010KT 9999 SKC QNH3035INS
BECMG 0118/0119 18012G17KT 9999 BKN035 510053 QNH3014INS TX08/3022Z TN00/0111Z

Example: see airport list